Latest Weather Observations for Norah Head

IDN60801

Issued at 3:32 pm EDT Thursday 11 February 2016 (issued every 30 minutes, with the page automatically refreshed every 10 minutes)

About weather observations | Map of weather stations | Latest weather observations for NSW | Other Formats
Station Details ID: 061366 Name: NORAH HEAD AWS Lat: -33.28 Lon: 151.58 Height: 18.8 m
Data from the previous 72 hours. | See also: Recent months at Norah Head
Date/Time
EDT
Temp
°C
App
Temp
°C
Dew
Point
Rel
Hum
%
Delta-T
°C
Wind Press
QNH
hPa
Press
MSL
hPa
Rain
since 9 am
mm
Dir
 
Spd
km/h
Gust
km/h
Spd
kts
Gust
kts
11/03:30pm 26.2 26.6 19.8 68 4.2 E 17 20 9 11 1014.0 1013.9 0.0
11/03:00pm 26.3 26.3 19.7 67 4.3 E 19 20 10 11 1014.2 1014.1 0.0
11/02:30pm 26.4 26.7 19.5 66 4.5 E 17 20 9 11 1014.6 1014.5 0.0
11/02:00pm 26.7 27.2 19.3 64 4.8 E 15 19 8 10 1014.7 1014.6 0.0
11/01:30pm 26.9 28.5 20.0 66 4.5 E 11 13 6 7 1014.9 1014.8 0.0
11/01:00pm 26.8 28.0 19.9 66 4.5 ESE 13 17 7 9 1015.1 1015.0 0.0
11/12:30pm 27.0 27.9 20.1 66 4.5 SE 15 17 8 9 1015.3 1015.2 0.0
11/12:00pm 26.9 28.3 20.3 67 4.3 SE 13 15 7 8 1015.3 1015.2 0.0
11/11:30am 27.1 28.8 20.9 69 4.1 SSE 13 15 7 8 1015.5 1015.4 0.0
11/11:00am 26.3 28.5 20.4 70 3.9 SSE 9 13 5 7 1015.6 1015.5 0.0
11/10:30am 25.6 28.1 19.9 70 3.7 SE 6 9 3 5 1015.6 1015.5 0.0
11/10:00am 25.1 27.7 20.1 74 3.2 SSE 6 7 3 4 1015.5 1015.4 0.0
11/09:30am 24.4 27.2 20.5 79 2.5 S 6 9 3 5 1015.5 1015.4 0.0
11/09:00am 24.5 28.1 20.6 79 2.5 ESE 2 6 1 3 1015.3 1015.2 0.0
11/08:30am 23.2 26.7 19.6 80 2.3 CALM 0 4 0 2 1015.1 1015.0 0.0
11/08:00am 22.2 24.6 19.6 85 1.7 NNW 6 7 3 4 1014.7 1014.6 0.0
11/07:30am 21.3 24.7 19.4 89 1.2 CALM 0 4 0 2 1014.5 1014.4 0.0
11/07:00am 20.3 22.4 19.0 92 0.8 W 6 7 3 4 1014.1 1014.0 0.0
11/06:30am 20.3 22.2 18.6 90 1.1 WNW 6 7 3 4 1013.7 1013.6 0.0
11/06:00am 20.4 22.1 18.5 89 1.2 NW 7 9 4 5 1013.4 1013.3 0.0
11/05:30am 21.1 22.6 19.0 88 1.3 NW 9 13 5 7 1013.2 1013.1 0.0
11/05:00am 22.1 21.1 19.6 86 1.6 NNE 24 28 13 15 1012.9 1012.8 0.0
11/04:30am 22.2 20.8 19.6 85 1.7 NNE 26 32 14 17 1012.8 1012.7 0.0
11/04:00am 22.3 20.6 19.8 86 1.6 NNE 28 32 15 17 1012.6 1012.5 0.0
11/03:30am 22.3 21.0 19.8 86 1.6 NE 26 30 14 16 1012.8 1012.7 0.0
11/03:00am 22.4 20.7 19.9 86 1.6 NE 28 32 15 17 1012.9 1012.8 0.0
11/02:30am 22.5 20.8 19.9 85 1.7 NNE 28 32 15 17 1013.0 1012.9 0.0
11/02:00am 22.6 21.4 20.1 86 1.6 NNE 26 30 14 16 1013.2 1013.1 0.0
11/01:30am 22.6 21.4 20.1 86 1.6 NE 26 32 14 17 1013.4 1013.3 0.0
11/01:00am 22.8 21.7 20.3 86 1.6 NNE 26 32 14 17 1013.7 1013.6 0.0
11/12:30am 22.7 21.0 19.7 83 1.9 NNE 28 33 15 18 1013.8 1013.7 0.0
11/12:00am 23.0 20.9 19.8 82 2.1 NNE 30 33 16 18 1013.8 1013.7 0.0
 
Date/Time
EDT
Temp
°C
App
Temp
°C
Dew
Point
Rel
Hum
%
Delta-T
°C
Wind Press
QNH
hPa
Press
MSL
hPa
Rain
since 9 am
mm
Dir
 
Spd
km/h
Gust
km/h
Spd
kts
Gust
kts
10/11:30pm 23.1 21.0 19.7 81 2.2 NNE 30 33 16 18 1013.8 1013.7 0.0
10/11:00pm 23.3 20.8 19.7 80 2.3 NNE 32 35 17 19 1013.9 1013.8 0.0
10/10:30pm 23.3 21.1 19.5 79 2.4 NNE 30 33 16 18 1014.1 1014.0 0.0
10/10:00pm 23.2 20.5 19.2 78 2.5 NNE 32 37 17 20 1014.2 1014.1 0.0
10/09:30pm 23.3 20.2 18.8 76 2.8 NE 33 37 18 20 1014.1 1014.0 0.0
10/09:00pm 23.3 20.3 19.0 77 2.7 NNE 33 37 18 20 1013.7 1013.6 0.0
10/08:30pm 23.3 20.1 18.6 75 3.0 NE 33 39 18 21 1013.6 1013.5 0.0
10/08:00pm 23.3 20.3 18.6 75 3.0 NE 32 37 17 20 1013.4 1013.3 0.0
10/07:30pm 23.4 20.5 18.9 76 2.9 NE 32 37 17 20 1013.1 1013.0 0.0
10/07:00pm 23.9 21.0 19.2 75 3.0 NE 33 37 18 20 1012.9 1012.8 0.0
10/06:30pm 24.1 21.5 19.4 75 3.0 NE 32 37 17 20 1012.6 1012.5 0.0
10/06:00pm 24.3 21.7 19.6 75 3.0 NE 32 35 17 19 1012.7 1012.6 0.0
10/05:30pm 24.6 22.2 19.9 75 3.0 NE 32 35 17 19 1012.6 1012.5 0.0
10/05:00pm 24.7 22.1 19.5 73 3.3 NE 32 35 17 19 1012.6 1012.5 0.0
10/04:30pm 25.4 23.0 20.0 72 3.5 NE 32 35 17 19 1012.8 1012.7 0.0
10/04:00pm 25.8 23.8 19.9 70 3.8 NE 30 33 16 18 1012.9 1012.8 0.0
10/03:30pm 26.4 24.3 19.8 67 4.3 NE 30 33 16 18 1013.1 1013.0 0.0
10/03:00pm 27.3 25.9 19.6 62 5.0 NE 26 30 14 16 1013.4 1013.3 0.0
10/02:30pm 28.4 27.5 20.7 63 5.1 NE 26 28 14 15 1013.8 1013.7 0.0
10/02:00pm 29.3 29.1 21.3 62 5.3 NE 24 26 13 14 1014.2 1014.1 0.0
10/01:30pm 29.0 29.1 20.4 59 5.7 NE 20 24 11 13 1014.7 1014.6 0.0
10/01:00pm 29.4 30.0 21.1 61 5.5 NE 19 20 10 11 1015.1 1015.0 0.0
10/12:30pm 29.2 30.1 20.1 58 6.0 NE 15 17 8 9 1015.5 1015.4 0.0
10/12:00pm 29.1 30.9 20.3 59 5.8 ENE 11 13 6 7 1015.8 1015.7 0.0
10/11:30am 28.3 30.5 20.3 62 5.3 ENE 9 13 5 7 1016.1 1016.0 0.0
10/11:00am 27.6 29.9 19.9 63 5.0 NE 7 9 4 5 1016.2 1016.1 0.0
10/10:30am 26.5 28.6 19.4 65 4.6 NNE 7 11 4 6 1016.5 1016.4 0.0
10/10:00am 26.0 27.7 19.4 67 4.2 N 9 11 5 6 1016.6 1016.5 0.0
10/09:30am 24.9 26.3 18.6 68 4.0 N 9 13 5 7 1016.6 1016.5 0.0
10/09:00am 23.7 25.7 18.8 74 3.1 NW 6 11 3 6 1016.6 1016.5 0.4
10/08:30am 22.8 25.4 19.2 80 2.3 WNW 4 7 2 4 1016.5 1016.4 0.4
10/08:00am 22.1 24.8 19.5 85 1.7 WNW 4 6 2 3 1016.4 1016.3 0.4
10/07:30am 21.2 23.4 19.3 89 1.2 W 6 7 3 4 1016.4 1016.3 0.4
10/07:00am 20.3 22.4 19.3 94 0.6 W 7 13 4 7 1016.2 1016.1 0.4
10/06:30am 19.8 21.4 19.1 96 0.4 W 9 13 5 7 1016.1 1016.0 0.4
10/06:00am 20.1 21.7 19.1 94 0.6 W 9 13 5 7 1015.9 1015.8 0.4
10/05:30am 20.3 22.1 19.5 95 0.5 W 9 13 5 7 1015.9 1015.8 0.4
10/05:00am 20.6 22.4 19.6 94 0.6 W 9 13 5 7 1015.8 1015.7 0.4
10/04:30am 20.6 22.0 19.6 94 0.6 W 11 15 6 8 1015.6 1015.5 0.4
10/04:00am 20.9 23.0 19.4 91 1.0 W 7 9 4 5 1015.7 1015.6 0.4
10/03:30am 21.3 23.8 19.0 87 1.5 WNW 4 6 2 3 1016.0 1015.9 0.4
10/03:00am 21.3 22.9 18.3 83 1.9 NNW 7 11 4 6 1016.5 1016.4 0.4
10/02:30am 21.3 22.4 18.1 82 2.0 NE 9 13 5 7 1016.7 1016.6 0.4
10/02:00am 21.5 22.0 18.3 82 2.0 NNE 13 17 7 9 1016.9 1016.8 0.4
10/01:30am 21.9 22.2 18.7 82 2.0 NE 15 17 8 9 1017.2 1017.1 0.4
10/01:00am 21.9 21.7 18.5 81 2.1 ENE 17 20 9 11 1017.4 1017.3 0.4
10/12:30am 22.4 22.0 19.0 81 2.2 ENE 19 20 10 11 1017.8 1017.7 0.4
10/12:00am 22.7 22.5 19.3 81 2.2 ENE 19 22 10 12 1018.2 1018.1 0.4
 
Date/Time
EDT
Temp
°C
App
Temp
°C
Dew
Point
Rel
Hum
%
Delta-T
°C
Wind Press
QNH
hPa
Press
MSL
hPa
Rain
since 9 am
mm
Dir
 
Spd
km/h
Gust
km/h
Spd
kts
Gust
kts
09/11:30pm 23.2 23.5 18.7 76 2.8 E 15 17 8 9 1018.5 1018.4 0.4
09/11:00pm 23.1 23.2 18.4 75 3.0 E 15 17 8 9 1018.7 1018.6 0.4
09/10:30pm 22.9 24.8 20.6 87 1.5 SE 11 13 6 7 1019.0 1018.9 0.4
09/10:00pm 22.9 24.8 20.6 87 1.5 SSE 11 17 6 9 1019.2 1019.1 0.4
09/09:30pm 22.6 24.5 19.8 84 1.8 SSE 9 11 5 6 1019.0 1018.9 0.4
09/09:00pm 22.8 24.7 19.8 83 1.9 SE 9 11 5 6 1018.9 1018.8 0.4
09/08:30pm 22.6 24.4 19.6 83 1.9 SSE 9 13 5 7 1018.9 1018.8 0.4
09/08:00pm 22.7 24.1 19.5 82 2.0 SSE 11 15 6 8 1018.8 1018.7 0.4
09/07:30pm 23.1 24.1 19.5 80 2.3 SSE 13 15 7 8 1018.6 1018.5 0.4
09/07:00pm 23.7 24.8 19.6 78 2.6 SSE 13 17 7 9 1018.4 1018.3 0.4
09/06:30pm 24.0 24.9 19.3 75 3.0 SSE 13 17 7 9 1018.3 1018.2 0.4
09/06:00pm 24.3 24.1 19.8 76 2.9 S 20 24 11 13 1018.1 1018.0 0.4
09/05:30pm 24.2 23.3 19.1 73 3.3 S 22 28 12 15 1018.2 1018.1 0.4
09/05:00pm 24.7 23.9 19.3 72 3.5 S 22 30 12 16 1018.4 1018.3 0.4
09/04:30pm 24.9 24.0 19.1 70 3.7 S 22 28 12 15 1018.6 1018.5 0.4
09/04:00pm 25.0 23.4 19.1 70 3.8 S 26 32 14 17 1018.7 1018.6 0.4
09/03:30pm 25.1 23.4 19.0 69 3.9 S 26 32 14 17 1018.9 1018.8 0.4
09/03:00pm 25.1 23.6 18.5 67 4.2 S 24 30 13 16 1019.3 1019.2 0.4
09/02:30pm 25.3 24.3 19.7 71 3.6 S 24 32 13 17 1019.6 1019.5 0.4
09/02:00pm 25.3 23.6 19.9 72 3.5 S 28 33 15 18 1019.8 1019.7 0.4
09/01:30pm 25.1 23.4 19.9 73 3.4 S 28 33 15 18 1020.0 1019.9 0.4
09/01:00pm 24.9 23.2 19.7 73 3.3 S 28 35 15 19 1020.2 1020.1 0.4
09/12:30pm 24.0 22.5 19.5 76 2.9 S 26 33 14 18 1020.4 1020.3 0.4
09/12:00pm 22.9 22.1 20.1 84 1.8 S 24 33 13 18 1020.7 1020.6 0.4
09/11:30am 23.1 22.0 20.2 84 1.9 SSE 26 35 14 19 1020.7 1020.6 0.4
09/11:00am 23.5 23.4 19.6 79 2.5 S 19 30 10 16 1020.7 1020.6 0.4
09/10:30am 25.8 26.1 19.7 69 3.9 S 17 20 9 11 1020.6 1020.5 0.0
09/10:00am 26.0 25.7 19.2 66 4.4 SSE 19 20 10 11 1020.5 1020.4 0.0
09/09:30am 25.4 25.4 19.8 71 3.6 SSE 19 22 10 12 1020.4 1020.3 0.0
09/09:00am 25.0 24.8 19.8 73 3.4 SE 20 24 11 13 1020.2 1020.1 0.8
09/08:30am 23.6 23.2 19.3 77 2.7 S 20 24 11 13 1019.9 1019.8 0.8
09/08:00am 23.5 22.5 19.6 79 2.5 S 24 30 13 16 1019.7 1019.6 0.8
09/07:30am 23.7 21.9 19.6 78 2.6 SSE 28 32 15 17 1019.3 1019.2 0.8
09/07:00am 23.1 20.9 18.8 77 2.7 S 28 33 15 18 1018.9 1018.8 0.8
09/06:30am 23.2 20.7 18.9 77 2.7 S 30 35 16 19 1018.6 1018.5 0.8
09/06:00am 23.0 20.3 19.2 79 2.4 S 32 39 17 21 1018.1 1018.0 0.8
09/05:30am 22.9 20.8 18.9 78 2.5 S 28 33 15 18 1017.9 1017.8 0.8
09/05:00am 23.1 21.4 19.9 82 2.1 S 28 35 15 19 1017.8 1017.7 0.8
09/04:30am 22.9 20.8 19.7 82 2.1 S 30 33 16 18 1017.8 1017.7 0.8
09/04:00am 22.8 20.9 19.4 81 2.2 S 28 32 15 17 1017.7 1017.6 0.8
09/03:30am 22.8 22.0 20.0 84 1.8 S 24 35 13 19 1017.8 1017.7 0.8
09/03:00am 22.6 22.5 19.9 85 1.7 SSE 20 24 11 13 1018.0 1017.9 0.8
09/02:30am 22.4 22.4 19.8 85 1.7 SSE 19 20 10 11 1018.1 1018.0 0.8
09/02:00am 22.6 22.6 20.1 86 1.6 SSE 20 22 11 12 1018.3 1018.2 0.8
09/01:30am 22.7 22.9 20.6 88 1.4 SSE 20 24 11 13 1018.5 1018.4 0.8
09/01:00am 22.9 24.5 21.4 91 1.0 S 15 28 8 15 1018.7 1018.6 0.8
09/12:30am 22.9 24.8 21.4 91 1.0 S 13 19 7 10 1018.8 1018.7 0.8
09/12:00am 22.9 24.0 21.2 90 1.1 S 17 20 9 11 1018.9 1018.8 0.8
 
Date/Time
EDT
Temp
°C
App
Temp
°C
Dew
Point
Rel
Hum
%
Delta-T
°C
Wind Press
QNH
hPa
Press
MSL
hPa
Rain
since 9 am
mm
Dir
 
Spd
km/h
Gust
km/h
Spd
kts
Gust
kts
08/11:30pm 23.0 24.5 21.3 90 1.1 S 15 19 8 10 1018.9 1018.8 0.8
08/11:00pm 23.0 24.0 21.1 89 1.2 SSE 17 20 9 11 1018.9 1018.8 0.8
08/10:30pm 22.7 23.7 21.0 90 1.1 S 17 20 9 11 1019.0 1018.9 0.8
08/10:00pm 22.9 24.5 21.5 92 0.9 SSE 15 17 8 9 1018.9 1018.8 0.8
08/09:30pm 22.5 23.9 21.0 91 1.0 SSE 15 17 8 9 1018.6 1018.5 0.8
08/09:00pm 22.7 24.4 21.0 90 1.1 SSE 13 15 7 8 1018.4 1018.3 0.8
08/08:30pm 22.9 24.4 21.2 90 1.1 SSE 15 17 8 9 1018.1 1018.0 0.8
08/08:00pm 23.0 23.9 20.9 88 1.4 SSE 17 19 9 10 1018.0 1017.9 0.8
08/07:30pm 23.3 24.2 20.8 86 1.6 SSE 17 19 9 10 1017.7 1017.6 0.8
08/07:00pm 23.9 24.7 20.6 82 2.1 SSE 17 17 9 9 1017.6 1017.5 0.8
08/06:30pm 24.4 25.6 20.7 80 2.4 SSE 15 17 8 9 1017.4 1017.3 0.8
08/06:00pm 24.8 25.7 20.9 79 2.6 SSE 17 20 9 11 1017.3 1017.2 0.8
08/05:30pm 25.3 25.9 21.0 77 2.8 SSE 19 20 10 11 1017.4 1017.3 0.8
08/05:00pm 25.4 25.8 20.9 76 3.0 SSE 20 24 11 13 1017.6 1017.5 0.8
08/04:30pm 25.6 26.1 21.1 76 3.0 S 20 24 11 13 1017.7 1017.6 0.8
08/04:00pm 25.8 26.1 20.8 74 3.3 S 20 24 11 13 1017.7 1017.6 0.8

Other Formats:

Comma delimited format used in spreadsheet applications
http://www.bom.gov.au/fwo/IDN60801/IDN60801.95770.axf

JavaScript Object Notation format (JSON) in row-major order
http://www.bom.gov.au/fwo/IDN60801/IDN60801.95770.json